createdAt,value
2023-05-18T00:00:32.338Z,47.63
2023-05-18T00:03:22.119Z,47.70
2023-05-18T00:05:51.679Z,47.40
2023-05-18T00:08:21.513Z,47.82
2023-05-18T00:10:51.128Z,47.59
2023-05-18T00:13:20.691Z,48.18
2023-05-18T00:15:49.942Z,47.93
2023-05-18T00:18:24.158Z,48.13
2023-05-18T00:20:59.183Z,47.76
2023-05-18T00:23:30.075Z,48.07
2023-05-18T00:25:59.510Z,47.82
2023-05-18T00:28:29.120Z,47.88
2023-05-18T00:30:59.458Z,47.50
2023-05-18T00:33:29.090Z,47.28
2023-05-18T00:35:59.782Z,47.46
2023-05-18T00:38:29.304Z,47.54
2023-05-18T00:40:58.475Z,47.40
2023-05-18T00:43:27.984Z,47.48
2023-05-18T00:45:57.198Z,47.40
2023-05-18T00:48:26.706Z,47.31
2023-05-18T00:50:55.872Z,48.26
2023-05-18T00:53:26.966Z,48.35
2023-05-18T00:55:56.168Z,48.26
2023-05-18T00:58:26.923Z,48.54
2023-05-18T01:00:57.068Z,48.38
2023-05-18T01:03:30.332Z,48.34
2023-05-18T01:05:59.540Z,47.91
2023-05-18T01:08:32.242Z,48.61
2023-05-18T01:11:17.303Z,48.37
2023-05-18T01:13:49.275Z,48.32
2023-05-18T01:16:19.993Z,48.25
2023-05-18T01:18:55.103Z,47.87
2023-05-18T01:21:26.604Z,48.31
2023-05-18T01:24:16.259Z,48.66
2023-05-18T01:26:47.005Z,48.50
2023-05-18T01:29:16.632Z,48.54
2023-05-18T01:31:45.802Z,48.49
2023-05-18T01:34:15.400Z,48.58
2023-05-18T01:36:44.594Z,48.31
2023-05-18T01:39:14.255Z,47.74
2023-05-18T01:41:43.640Z,48.23
2023-05-18T01:44:17.556Z,47.92
2023-05-18T01:46:48.455Z,48.13
2023-05-18T01:49:18.880Z,48.69
2023-05-18T01:51:48.455Z,48.67
2023-05-18T01:54:18.874Z,48.55
2023-05-18T01:56:48.879Z,48.62
2023-05-18T01:59:20.007Z,48.37
2023-05-18T02:01:49.242Z,48.60
2023-05-18T02:04:18.819Z,48.73
2023-05-18T02:06:48.013Z,48.61
2023-05-18T02:09:17.537Z,48.34
2023-05-18T02:11:46.976Z,48.83
2023-05-18T02:14:16.610Z,48.70
2023-05-18T02:16:53.139Z,48.76
2023-05-18T02:19:23.186Z,48.90
2023-05-18T02:21:52.361Z,48.72
2023-05-18T02:24:23.301Z,49.21
2023-05-18T02:26:52.598Z,49.36
2023-05-18T02:29:22.260Z,48.83
2023-05-18T02:31:53.000Z,48.84
2023-05-18T02:34:24.940Z,48.78
2023-05-18T02:36:58.114Z,49.54
2023-05-18T02:39:27.878Z,49.36
2023-05-18T02:41:57.161Z,49.00
2023-05-18T02:44:26.816Z,49.45
2023-05-18T02:46:57.524Z,48.86
2023-05-18T02:49:27.141Z,49.21
2023-05-18T02:51:56.423Z,49.53
2023-05-18T02:54:26.218Z,49.36
2023-05-18T02:56:57.106Z,49.40
2023-05-18T02:59:26.879Z,49.46
2023-05-18T03:01:57.564Z,49.74
2023-05-18T03:04:27.175Z,49.91
2023-05-18T03:06:57.495Z,49.40
2023-05-18T03:09:27.213Z,49.43
2023-05-18T03:11:56.387Z,49.65
2023-05-18T03:14:26.110Z,49.34
2023-05-18T03:16:58.146Z,49.32
2023-05-18T03:19:29.258Z,49.06
2023-05-18T03:21:59.250Z,49.47
2023-05-18T03:24:30.554Z,49.14
2023-05-18T03:27:01.271Z,49.23
2023-05-18T03:29:31.733Z,48.92
2023-05-18T03:32:01.028Z,49.19
2023-05-18T03:34:32.084Z,49.21
2023-05-18T03:37:02.149Z,48.92
2023-05-18T03:39:31.742Z,49.13
2023-05-18T03:42:01.108Z,48.95
2023-05-18T03:44:31.026Z,49.05
2023-05-18T03:47:00.274Z,49.50
2023-05-18T03:49:30.638Z,49.47
2023-05-18T03:52:01.305Z,49.62
2023-05-18T03:54:30.967Z,49.76
2023-05-18T03:57:00.246Z,49.38
2023-05-18T03:59:29.828Z,49.50
2023-05-18T04:01:59.079Z,49.12
2023-05-18T04:04:28.797Z,49.30
2023-05-18T04:06:58.092Z,49.49
2023-05-18T04:09:29.424Z,49.17
2023-05-18T04:11:58.620Z,49.32
2023-05-18T04:14:28.608Z,49.32
2023-05-18T04:16:58.489Z,48.94
2023-05-18T04:19:28.420Z,49.25
2023-05-18T04:21:57.654Z,49.11
2023-05-18T04:24:28.696Z,49.10
2023-05-18T04:26:59.606Z,48.95
2023-05-18T04:29:29.356Z,49.20
2023-05-18T04:32:00.281Z,48.67
2023-05-18T04:34:29.984Z,48.79
2023-05-18T04:36:59.549Z,49.20
2023-05-18T04:39:30.548Z,49.32
2023-05-18T04:41:59.864Z,49.12
2023-05-18T04:44:29.625Z,49.62
2023-05-18T04:46:59.519Z,49.55
2023-05-18T04:49:29.264Z,49.36
2023-05-18T04:51:59.610Z,49.34
2023-05-18T04:54:32.101Z,49.63
2023-05-18T04:57:02.313Z,49.42
2023-05-18T04:59:31.847Z,49.55
2023-05-18T05:02:01.130Z,49.40
2023-05-18T05:04:30.821Z,49.68
2023-05-18T05:07:00.157Z,49.66
2023-05-18T05:09:31.255Z,50.04
2023-05-18T05:12:00.515Z,49.77
2023-05-18T05:14:30.064Z,50.02
2023-05-18T05:16:59.276Z,49.86
2023-05-18T05:19:29.074Z,49.59
2023-05-18T05:21:58.306Z,49.75
2023-05-18T05:24:27.851Z,49.75
2023-05-18T05:26:58.639Z,49.79
2023-05-18T05:29:28.244Z,50.00
2023-05-18T05:31:57.561Z,49.51
2023-05-18T05:34:27.231Z,50.01
2023-05-18T05:36:56.380Z,49.66
2023-05-18T05:39:25.952Z,50.12
2023-05-18T05:41:55.176Z,49.98
2023-05-18T05:44:26.100Z,49.63
2023-05-18T05:46:55.381Z,49.72
2023-05-18T05:49:24.952Z,49.62
2023-05-18T05:51:54.285Z,49.39
2023-05-18T05:54:23.710Z,49.52
2023-05-18T05:56:52.875Z,49.38
2023-05-18T05:59:22.694Z,49.05
2023-05-18T06:01:53.517Z,48.87
2023-05-18T06:04:23.199Z,48.83
2023-05-18T06:06:52.519Z,48.87
2023-05-18T06:09:22.179Z,48.74
2023-05-18T06:11:54.129Z,48.66
2023-05-18T06:14:34.048Z,48.26
2023-05-18T06:17:05.038Z,48.28
2023-05-18T06:19:34.872Z,47.74
2023-05-18T06:22:04.276Z,47.82
2023-05-18T06:24:33.983Z,47.72
2023-05-18T06:27:03.380Z,47.65
2023-05-18T06:29:33.131Z,47.51
2023-05-18T06:32:02.549Z,47.23
2023-05-18T06:34:33.668Z,47.42
2023-05-18T06:37:02.998Z,47.39
2023-05-18T06:39:32.625Z,46.87
2023-05-18T06:42:02.036Z,46.92
2023-05-18T06:44:31.746Z,46.77
2023-05-18T06:47:00.953Z,46.69
2023-05-18T06:49:30.841Z,46.80
2023-05-18T06:52:01.467Z,46.07
2023-05-18T06:54:30.857Z,46.08
2023-05-18T06:57:00.465Z,46.16
2023-05-18T06:59:29.761Z,46.15
2023-05-18T07:01:59.393Z,46.10
2023-05-18T07:04:28.728Z,45.45
2023-05-18T07:06:58.349Z,45.12
2023-05-18T07:09:28.996Z,45.26
2023-05-18T07:11:58.746Z,45.12
2023-05-18T07:14:28.064Z,45.02
2023-05-18T07:16:57.845Z,45.52
2023-05-18T07:19:27.321Z,45.37
2023-05-18T07:21:57.316Z,45.55
2023-05-18T07:24:26.535Z,45.38
2023-05-18T07:27:00.047Z,45.00
2023-05-18T07:29:30.267Z,45.21
2023-05-18T07:31:59.966Z,44.67
2023-05-18T07:34:29.385Z,44.63
2023-05-18T07:36:58.961Z,44.97
2023-05-18T07:39:29.567Z,44.87
2023-05-18T07:42:00.913Z,44.77
2023-05-18T07:44:30.118Z,44.76
2023-05-18T07:46:59.685Z,44.44
2023-05-18T07:49:28.905Z,44.49
2023-05-18T07:51:58.429Z,44.02
2023-05-18T07:54:28.365Z,44.58
2023-05-18T07:57:00.316Z,44.35
2023-05-18T07:59:31.440Z,44.41
2023-05-18T08:02:02.176Z,44.70
2023-05-18T08:04:31.557Z,44.25
2023-05-18T08:07:02.205Z,44.21
2023-05-18T08:09:31.390Z,44.44
2023-05-18T08:12:01.078Z,43.96
2023-05-18T08:14:31.642Z,43.65
2023-05-18T08:17:01.215Z,44.28
2023-05-18T08:19:30.508Z,43.92
2023-05-18T08:21:59.555Z,43.69
2023-05-18T08:24:29.174Z,43.55
2023-05-18T08:26:58.372Z,43.52
2023-05-18T08:29:27.986Z,43.70
2023-05-18T08:31:58.676Z,43.87
2023-05-18T08:34:30.221Z,43.35
2023-05-18T08:37:00.314Z,42.86
2023-05-18T08:39:32.019Z,42.63
2023-05-18T08:42:03.342Z,42.25
2023-05-18T08:44:36.607Z,42.43
2023-05-18T08:47:07.293Z,42.88
2023-05-18T08:49:36.935Z,42.36
2023-05-18T08:52:06.449Z,42.72
2023-05-18T08:54:35.985Z,43.00
2023-05-18T08:57:05.707Z,42.56
2023-05-18T08:59:35.191Z,42.51
2023-05-18T09:02:04.467Z,42.90
2023-05-18T09:04:35.975Z,42.33
2023-05-18T09:07:05.642Z,42.29
2023-05-18T09:09:35.401Z,42.90
2023-05-18T09:12:04.813Z,42.69
2023-05-18T09:14:34.424Z,42.65
2023-05-18T09:17:03.848Z,42.70
2023-05-18T09:19:33.564Z,42.55
2023-05-18T09:22:04.220Z,42.85
2023-05-18T09:24:34.341Z,42.61
2023-05-18T09:27:03.584Z,42.89
2023-05-18T09:29:33.882Z,42.87
2023-05-18T09:32:04.069Z,42.52
2023-05-18T09:34:40.987Z,42.57
2023-05-18T09:37:12.163Z,42.37
2023-05-18T09:39:41.611Z,42.78
2023-05-18T09:42:10.805Z,42.55
2023-05-18T09:44:40.404Z,42.63
2023-05-18T09:47:10.046Z,42.86
2023-05-18T09:49:39.578Z,42.53
2023-05-18T09:52:12.092Z,42.43
2023-05-18T09:54:43.006Z,42.14
2023-05-18T09:57:12.217Z,42.19
2023-05-18T09:59:41.811Z,42.43
2023-05-18T10:02:13.217Z,42.11
2023-05-18T10:04:43.563Z,42.19
2023-05-18T10:07:13.735Z,42.23
2023-05-18T10:09:45.685Z,42.43
2023-05-18T10:12:15.296Z,42.07
2023-05-18T10:14:45.168Z,42.19
2023-05-18T10:17:16.424Z,42.13
2023-05-18T10:19:46.964Z,42.12
2023-05-18T10:22:17.291Z,41.55
2023-05-18T10:24:50.256Z,41.67
2023-05-18T10:27:23.440Z,41.83
2023-05-18T10:29:53.182Z,41.64
2023-05-18T10:32:22.380Z,41.21
2023-05-18T10:34:52.908Z,41.40
2023-05-18T10:37:23.825Z,41.41
2023-05-18T10:39:55.266Z,41.76
2023-05-18T10:42:24.728Z,42.08
2023-05-18T10:44:54.443Z,41.71
2023-05-18T10:47:23.797Z,41.82
2023-05-18T10:49:53.501Z,41.63
2023-05-18T10:52:22.830Z,41.55
2023-05-18T10:54:52.744Z,41.95
2023-05-18T10:57:23.604Z,41.91
2023-05-18T10:59:53.221Z,41.87
2023-05-18T11:02:22.730Z,41.56
2023-05-18T11:04:54.157Z,41.28
2023-05-18T11:07:23.830Z,41.67
2023-05-18T11:09:53.473Z,41.41
2023-05-18T11:12:24.223Z,41.55
2023-05-18T11:14:54.327Z,41.31
2023-05-18T11:17:26.921Z,41.55
2023-05-18T11:20:15.619Z,41.58
2023-05-18T11:22:48.476Z,41.08
2023-05-18T11:25:36.852Z,41.60
2023-05-18T11:28:08.234Z,41.05
2023-05-18T11:30:51.304Z,41.07
2023-05-18T11:33:27.393Z,41.33
2023-05-18T11:35:57.838Z,41.22
2023-05-18T11:38:30.373Z,41.12
2023-05-18T11:41:01.006Z,41.20
2023-05-18T11:43:31.726Z,40.96
2023-05-18T11:46:01.630Z,41.11
2023-05-18T11:48:31.268Z,41.08
2023-05-18T11:51:01.333Z,41.04
2023-05-18T11:53:31.393Z,40.87
2023-05-18T11:56:00.976Z,41.17
2023-05-18T11:58:31.677Z,41.05
2023-05-18T12:01:01.974Z,40.91
2023-05-18T12:03:31.402Z,41.40
2023-05-18T12:06:01.489Z,40.53
2023-05-18T12:08:30.831Z,41.13
2023-05-18T12:11:02.579Z,40.74
2023-05-18T12:13:33.374Z,40.90
2023-05-18T12:16:03.135Z,40.67
2023-05-18T12:18:35.396Z,40.99
2023-05-18T12:21:05.975Z,40.76
2023-05-18T12:23:38.651Z,40.58
2023-05-18T12:26:08.464Z,40.54
2023-05-18T12:28:39.177Z,40.34
2023-05-18T12:31:09.365Z,40.29
2023-05-18T12:33:38.760Z,40.12
2023-05-18T12:36:11.568Z,40.54
2023-05-18T12:38:40.863Z,40.28
2023-05-18T12:41:10.681Z,40.18
2023-05-18T12:43:41.618Z,40.37
2023-05-18T12:46:11.276Z,40.16
2023-05-18T12:48:42.643Z,39.76
2023-05-18T12:51:18.813Z,40.01
2023-05-18T12:53:48.335Z,39.99
2023-05-18T12:56:18.390Z,40.06
2023-05-18T12:58:59.164Z,39.98
2023-05-18T13:01:29.425Z,39.92
2023-05-18T13:03:59.716Z,39.90
2023-05-18T13:06:29.384Z,39.60
2023-05-18T13:08:58.530Z,39.94
2023-05-18T13:11:28.566Z,39.98
2023-05-18T13:14:03.510Z,40.22
2023-05-18T13:16:35.634Z,40.00
2023-05-18T13:19:06.624Z,39.81
2023-05-18T13:21:36.404Z,39.77
2023-05-18T13:24:05.981Z,39.87
2023-05-18T13:26:35.675Z,39.33
2023-05-18T13:29:07.434Z,39.34
2023-05-18T13:31:37.466Z,39.30
2023-05-18T13:34:06.710Z,39.55
2023-05-18T13:36:36.724Z,39.64
2023-05-18T13:39:07.637Z,39.23
2023-05-18T13:41:37.380Z,38.95
2023-05-18T13:44:08.141Z,39.54
2023-05-18T13:46:38.369Z,39.02
2023-05-18T13:49:07.718Z,39.60
2023-05-18T13:51:37.276Z,39.22
2023-05-18T13:54:08.013Z,39.36
2023-05-18T13:56:37.555Z,38.94
2023-05-18T13:59:08.196Z,38.77
2023-05-18T14:01:37.880Z,38.48
2023-05-18T14:04:07.119Z,38.85
2023-05-18T14:06:36.604Z,38.34
2023-05-18T14:09:06.007Z,38.53
2023-05-18T14:11:37.041Z,38.34
2023-05-18T14:14:07.894Z,38.43
2023-05-18T14:16:38.050Z,38.35
2023-05-18T14:19:07.439Z,38.29
2023-05-18T14:21:37.111Z,38.19
2023-05-18T14:24:08.508Z,37.73
2023-05-18T14:26:38.068Z,38.01
2023-05-18T14:29:08.816Z,37.87
2023-05-18T14:31:38.511Z,37.75
2023-05-18T14:34:08.032Z,37.29
2023-05-18T14:36:37.587Z,37.58
2023-05-18T14:39:06.939Z,37.93
2023-05-18T14:41:36.558Z,36.85
2023-05-18T14:44:08.823Z,37.62
2023-05-18T14:46:40.114Z,36.98
2023-05-18T14:49:09.319Z,37.05
2023-05-18T14:51:39.058Z,37.26
2023-05-18T14:54:08.297Z,36.54
2023-05-18T14:56:38.011Z,36.93
2023-05-18T14:59:07.254Z,36.87
2023-05-18T15:01:36.825Z,36.82
2023-05-18T15:04:07.555Z,36.59
2023-05-18T15:06:37.717Z,36.83
2023-05-18T15:09:08.501Z,36.94
2023-05-18T15:11:38.147Z,36.04
2023-05-18T15:14:07.254Z,36.57
2023-05-18T15:16:37.201Z,36.33
2023-05-18T15:19:07.982Z,36.51
2023-05-18T15:21:37.532Z,37.02
2023-05-18T15:24:06.911Z,36.46
2023-05-18T15:26:36.493Z,36.41
2023-05-18T15:29:05.729Z,36.51
2023-05-18T15:31:37.137Z,36.84
2023-05-18T15:34:07.920Z,36.08
2023-05-18T15:36:38.337Z,36.39
2023-05-18T15:39:07.627Z,36.59
2023-05-18T15:41:37.378Z,36.09
2023-05-18T15:44:06.692Z,36.13
2023-05-18T15:46:36.367Z,36.30
2023-05-18T15:49:05.588Z,36.21
2023-05-18T15:51:36.717Z,36.21
2023-05-18T15:54:05.855Z,35.53
2023-05-18T15:56:35.446Z,35.39
2023-05-18T15:59:06.978Z,35.11
2023-05-18T16:01:36.634Z,34.90
2023-05-18T16:04:06.101Z,35.11
2023-05-18T16:06:37.707Z,34.97
2023-05-18T16:09:06.935Z,34.68
2023-05-18T16:11:37.016Z,34.95
2023-05-18T16:14:07.809Z,35.14
2023-05-18T16:16:37.493Z,35.17
2023-05-18T16:19:07.406Z,35.12
2023-05-18T16:21:39.149Z,35.36
2023-05-18T16:24:08.632Z,35.63
2023-05-18T16:26:40.033Z,35.88
2023-05-18T16:29:09.962Z,35.57
2023-05-18T16:31:39.656Z,35.74
2023-05-18T16:34:08.963Z,35.67
2023-05-18T16:36:40.052Z,35.59
2023-05-18T16:39:09.310Z,35.80
2023-05-18T16:41:39.052Z,35.76
2023-05-18T16:44:08.218Z,35.90
2023-05-18T16:46:37.854Z,36.05
2023-05-18T16:49:07.112Z,36.03
2023-05-18T16:51:36.721Z,36.34
2023-05-18T16:54:07.530Z,36.20
2023-05-18T16:56:37.239Z,36.30
2023-05-18T16:59:06.360Z,36.15
2023-05-18T17:01:36.021Z,36.04
2023-05-18T17:04:05.497Z,36.26
2023-05-18T17:06:35.166Z,36.35
2023-05-18T17:09:06.318Z,36.47
2023-05-18T17:11:37.659Z,36.65
2023-05-18T17:14:06.883Z,36.57
2023-05-18T17:16:40.429Z,36.81
2023-05-18T17:19:09.835Z,37.05
2023-05-18T17:21:39.452Z,37.03
2023-05-18T17:24:08.830Z,36.94
2023-05-18T17:26:39.839Z,37.14
2023-05-18T17:29:09.098Z,37.11
2023-05-18T17:31:38.857Z,37.29
2023-05-18T17:34:09.150Z,37.17
2023-05-18T17:36:38.843Z,37.32
2023-05-18T17:39:08.622Z,37.62
2023-05-18T17:41:39.727Z,37.42
2023-05-18T17:44:08.958Z,37.53
2023-05-18T17:46:38.490Z,37.70
2023-05-18T17:49:07.825Z,37.78
2023-05-18T17:51:37.567Z,37.85
2023-05-18T17:54:06.983Z,37.72
2023-05-18T17:56:36.607Z,37.96
2023-05-18T17:59:07.236Z,37.92
2023-05-18T18:01:38.370Z,38.00
2023-05-18T18:04:07.762Z,37.75
2023-05-18T18:06:37.348Z,38.03
2023-05-18T18:09:06.740Z,38.20
2023-05-18T18:11:36.505Z,37.96
2023-05-18T18:14:07.409Z,37.92
2023-05-18T18:16:36.990Z,37.92
2023-05-18T18:19:06.559Z,37.91
2023-05-18T18:21:36.613Z,38.13
2023-05-18T18:24:06.185Z,38.11
2023-05-18T18:26:40.499Z,38.17
2023-05-18T18:29:11.238Z,38.19
2023-05-18T18:31:40.945Z,38.37
2023-05-18T18:34:11.636Z,38.35
2023-05-18T18:36:42.138Z,38.40
2023-05-18T18:39:11.362Z,38.40
2023-05-18T18:41:42.661Z,38.70
2023-05-18T18:44:13.484Z,38.58
2023-05-18T18:46:43.196Z,38.76
2023-05-18T18:49:12.420Z,38.70
2023-05-18T18:51:42.180Z,38.74
2023-05-18T18:54:11.380Z,38.71
2023-05-18T18:56:40.932Z,38.89
2023-05-18T18:59:10.103Z,39.06
2023-05-18T19:01:41.160Z,38.87
2023-05-18T19:04:10.563Z,39.04
2023-05-18T19:06:40.186Z,38.62
2023-05-18T19:09:09.500Z,38.72
2023-05-18T19:11:39.102Z,38.96
2023-05-18T19:14:08.330Z,39.13
2023-05-18T19:16:38.267Z,39.10
2023-05-18T19:19:09.835Z,38.95
2023-05-18T19:21:39.595Z,38.88
2023-05-18T19:24:09.132Z,39.42
2023-05-18T19:26:38.670Z,39.31
2023-05-18T19:29:07.946Z,39.42
2023-05-18T19:31:38.168Z,39.51
2023-05-18T19:34:08.861Z,39.45
2023-05-18T19:36:38.523Z,39.28
2023-05-18T19:39:07.780Z,39.41
2023-05-18T19:41:37.698Z,39.25
2023-05-18T19:44:06.999Z,39.26
2023-05-18T19:46:37.133Z,39.09
2023-05-18T19:49:06.872Z,39.34
2023-05-18T19:51:37.904Z,39.26
2023-05-18T19:54:07.185Z,39.42
2023-05-18T19:56:37.239Z,39.43
2023-05-18T19:59:06.508Z,39.40
2023-05-18T20:01:36.093Z,39.87
2023-05-18T20:04:05.489Z,39.76
2023-05-18T20:06:35.198Z,39.78
2023-05-18T20:09:06.552Z,39.64
2023-05-18T20:11:36.431Z,39.71
2023-05-18T20:14:05.861Z,39.68
2023-05-18T20:16:39.095Z,39.84
2023-05-18T20:19:08.625Z,39.81
2023-05-18T20:21:38.227Z,40.05
2023-05-18T20:24:08.971Z,39.72
2023-05-18T20:26:38.499Z,39.97
2023-05-18T20:29:07.714Z,39.93
2023-05-18T20:31:37.409Z,40.07
2023-05-18T20:34:07.171Z,39.94
2023-05-18T20:36:37.012Z,39.86
2023-05-18T20:39:06.693Z,40.10
2023-05-18T20:41:40.295Z,39.96
2023-05-18T20:44:11.697Z,40.24
2023-05-18T20:46:42.838Z,40.08
2023-05-18T20:49:13.325Z,40.27
2023-05-18T20:51:42.852Z,40.30
2023-05-18T20:54:12.162Z,40.25
2023-05-18T20:56:43.184Z,39.98
2023-05-18T20:59:12.764Z,40.05
2023-05-18T21:01:43.095Z,40.18
2023-05-18T21:04:13.016Z,40.15
2023-05-18T21:06:44.172Z,39.93
2023-05-18T21:09:13.480Z,40.12
2023-05-18T21:11:44.427Z,40.24
2023-05-18T21:14:13.622Z,40.35
2023-05-18T21:16:43.224Z,40.10
2023-05-18T21:19:12.531Z,40.36
2023-05-18T21:21:43.004Z,40.27
2023-05-18T21:24:12.237Z,40.28
2023-05-18T21:26:42.780Z,40.36
2023-05-18T21:29:13.393Z,40.10
2023-05-18T21:31:43.047Z,40.55
2023-05-18T21:34:12.387Z,40.14
2023-05-18T21:36:41.913Z,40.46
2023-05-18T21:39:11.265Z,40.60
2023-05-18T21:41:42.490Z,40.43
2023-05-18T21:44:14.181Z,40.47
2023-05-18T21:46:43.755Z,40.72
2023-05-18T21:49:13.092Z,40.43
2023-05-18T21:51:42.662Z,40.49
2023-05-18T21:54:11.886Z,40.33
2023-05-18T21:56:41.477Z,40.77
2023-05-18T21:59:10.766Z,40.67
2023-05-18T22:01:41.840Z,40.59
2023-05-18T22:04:11.196Z,40.27
2023-05-18T22:06:40.836Z,40.59
2023-05-18T22:09:10.388Z,40.48
2023-05-18T22:11:40.020Z,40.21
2023-05-18T22:14:09.234Z,40.66
2023-05-18T22:16:38.935Z,40.53
2023-05-18T22:19:09.778Z,41.38
2023-05-18T22:21:39.408Z,41.35
2023-05-18T22:24:08.658Z,41.16
2023-05-18T22:26:38.247Z,41.33
2023-05-18T22:29:07.595Z,41.84
2023-05-18T22:31:37.286Z,42.39
2023-05-18T22:34:06.500Z,42.31
2023-05-18T22:36:37.495Z,42.23
2023-05-18T22:39:06.739Z,41.59
2023-05-18T22:41:36.288Z,42.24
2023-05-18T22:44:05.647Z,42.74
2023-05-18T22:46:35.162Z,43.10
2023-05-18T22:49:05.558Z,42.91
2023-05-18T22:51:35.832Z,42.91
2023-05-18T22:54:06.573Z,43.10
2023-05-18T22:56:36.146Z,43.05
2023-05-18T22:59:07.196Z,42.96
2023-05-18T23:01:37.831Z,43.46
